createdAt,value
2019-05-16T06:52:06.355Z,1014.96
2019-05-16T06:53:06.320Z,1014.93
2019-05-16T06:55:00.858Z,1014.88
2019-05-16T06:56:00.319Z,1014.94
2019-05-16T06:57:57.173Z,1014.98
2019-05-16T06:58:54.531Z,1015.00
2019-05-16T07:00:51.711Z,1015.00
2019-05-16T07:01:50.003Z,1015.02
2019-05-16T07:02:49.925Z,1014.93
2019-05-16T07:03:50.593Z,1014.81
2019-05-16T07:04:50.460Z,1014.76
2019-05-16T07:05:50.322Z,1014.78
2019-05-16T07:06:57.910Z,1014.76
2019-05-16T07:07:50.698Z,1014.77
2019-05-16T07:08:50.800Z,1014.83
2019-05-16T07:09:58.104Z,1014.78
2019-05-16T07:10:50.493Z,1014.84
2019-05-16T07:11:50.319Z,1014.84
2019-05-16T07:12:50.404Z,1014.86
2019-05-16T07:13:51.711Z,1014.81
2019-05-16T07:14:50.356Z,1014.72
2019-05-16T07:15:50.246Z,1014.70
2019-05-16T07:16:49.692Z,1014.66
2019-05-16T07:17:50.476Z,1014.61
2019-05-16T07:18:50.661Z,1014.61
2019-05-16T07:19:50.256Z,1014.67
2019-05-16T07:20:50.750Z,1014.66
2019-05-16T07:21:50.782Z,1014.67
2019-05-16T07:22:50.285Z,1014.71
2019-05-16T07:23:50.880Z,1014.67
2019-05-16T07:24:50.466Z,1014.71
2019-05-16T07:25:50.484Z,1014.78
2019-05-16T07:26:50.010Z,1014.90
2019-05-16T07:27:50.978Z,1014.80
2019-05-16T07:28:51.228Z,1014.79
2019-05-16T07:29:50.647Z,1014.85
2019-05-16T07:30:49.993Z,1014.80
2019-05-16T07:31:48.512Z,1014.91
2019-05-16T07:32:49.976Z,1014.79
2019-05-16T07:33:50.279Z,1014.73
2019-05-16T07:34:49.878Z,1014.70
2019-05-16T07:35:50.896Z,1014.60
2019-05-16T07:36:50.196Z,1014.61
2019-05-16T07:37:50.012Z,1014.61
2019-05-16T07:38:50.612Z,1014.57
2019-05-16T07:39:51.097Z,1014.57
2019-05-16T07:40:50.799Z,1014.55
2019-05-16T07:41:50.771Z,1014.57
2019-05-16T07:42:50.761Z,1014.56
2019-05-16T07:43:50.508Z,1014.57
2019-05-16T07:44:50.554Z,1014.60
2019-05-16T07:45:50.915Z,1014.57
2019-05-16T07:46:51.273Z,1014.62
2019-05-16T07:47:50.646Z,1014.67
2019-05-16T07:48:51.841Z,1014.68
2019-05-16T07:49:50.131Z,1014.74
2019-05-16T07:50:50.011Z,1014.81
2019-05-16T07:51:49.838Z,1014.79
2019-05-16T07:52:51.196Z,1014.62
2019-05-16T07:53:50.527Z,1014.62
2019-05-16T07:54:50.779Z,1014.61
2019-05-16T07:55:50.894Z,1014.61
2019-05-16T07:56:57.126Z,1014.65
2019-05-16T07:57:50.625Z,1014.82
2019-05-16T07:58:50.791Z,1014.86
2019-05-16T07:59:50.539Z,1014.86
2019-05-16T08:00:58.048Z,1014.82
2019-05-16T08:01:53.821Z,1014.84
2019-05-16T08:02:50.616Z,1015.12
2019-05-16T08:03:50.886Z,1015.48
2019-05-16T08:04:50.182Z,1015.82
2019-05-16T08:05:51.481Z,1015.91
2019-05-16T08:06:50.213Z,1015.50
2019-05-16T08:07:50.854Z,1015.61
2019-05-16T08:08:51.054Z,1015.87
2019-05-16T08:09:50.454Z,1015.90
2019-05-16T08:10:51.023Z,1015.83
2019-05-16T08:11:50.151Z,1015.46
2019-05-16T08:12:51.333Z,1015.08
2019-05-16T08:13:50.705Z,1015.16
2019-05-16T08:14:50.155Z,1015.13
2019-05-16T08:15:50.361Z,1015.14
2019-05-16T08:16:50.192Z,1015.45
2019-05-16T08:17:51.163Z,1015.25
2019-05-16T08:18:50.694Z,1014.86
2019-05-16T08:19:50.613Z,1014.69
2019-05-16T08:21:50.468Z,1014.54
2019-05-16T08:22:50.761Z,1014.63
2019-05-16T08:23:50.358Z,1014.71
2019-05-16T08:24:50.534Z,1014.81
2019-05-16T08:25:50.665Z,1014.72
2019-05-16T08:26:51.372Z,1014.71
2019-05-16T08:27:52.033Z,1014.56
2019-05-16T08:28:50.357Z,1014.46
2019-05-16T08:29:51.348Z,1014.44
2019-05-16T08:30:52.735Z,1014.33
2019-05-16T08:31:52.355Z,1014.30
2019-05-16T08:32:52.423Z,1014.34
2019-05-16T08:33:54.261Z,1014.32
2019-05-16T08:34:51.395Z,1014.32
2019-05-16T08:35:51.541Z,1014.28
2019-05-16T08:36:51.863Z,1014.35
2019-05-16T08:37:51.445Z,1014.39
2019-05-16T08:39:50.964Z,1014.41
2019-05-16T08:41:06.456Z,1014.35
2019-05-16T08:41:51.914Z,1014.35
2019-05-16T08:42:51.565Z,1014.36
2019-05-16T08:43:53.378Z,1014.49
2019-05-16T08:44:51.739Z,1014.42
2019-05-16T08:45:51.648Z,1014.44
2019-05-16T08:46:54.807Z,1014.81
2019-05-16T08:47:52.513Z,1017.26
2019-05-16T08:49:52.135Z,1016.92
2019-05-16T08:50:08.651Z,1014.46
2019-05-16T08:50:53.933Z,1016.41
2019-05-16T08:51:52.830Z,1016.33
2019-05-16T08:52:52.919Z,1016.85
2019-05-16T08:53:50.467Z,1017.69
2019-05-16T08:54:51.048Z,1018.37
2019-05-16T08:55:50.606Z,1018.18
2019-05-16T08:56:51.061Z,1017.63
2019-05-16T08:57:53.048Z,1017.09
2019-05-16T08:58:54.072Z,1017.22
2019-05-16T08:59:52.413Z,1017.60
2019-05-16T09:00:54.763Z,1017.33
2019-05-16T09:01:57.417Z,1016.84
2019-05-16T09:02:52.102Z,1016.40
2019-05-16T09:03:52.038Z,1016.22
2019-05-16T09:04:53.105Z,1015.95
2019-05-16T09:05:53.033Z,1015.56
2019-05-16T09:06:52.483Z,1015.22
2019-05-16T09:07:49.465Z,1014.95
2019-05-16T09:08:49.442Z,1014.76
2019-05-16T09:09:51.866Z,1014.69
2019-05-16T09:10:20.786Z,1014.55
2019-05-16T09:10:30.560Z,1017.36
2019-05-16T09:11:00.943Z,1014.66
2019-05-16T09:11:49.476Z,1014.61
2019-05-16T09:12:49.489Z,1014.42
2019-05-16T09:13:49.494Z,1014.38
2019-05-16T09:14:49.504Z,1014.39
2019-05-16T09:15:49.542Z,1014.71
2019-05-16T09:16:49.529Z,1015.03
2019-05-16T09:17:49.554Z,1015.09
2019-05-16T09:18:51.024Z,1015.13
2019-05-16T09:19:49.566Z,1016.34
2019-05-16T09:20:50.614Z,1017.04
2019-05-16T09:21:49.581Z,1020.03
2019-05-16T09:22:49.586Z,1019.08
2019-05-16T09:23:49.602Z,1016.19
2019-05-16T09:24:49.611Z,1015.50
2019-05-16T09:25:49.636Z,1017.93
2019-05-16T09:26:49.635Z,1015.27
2019-05-16T09:27:49.645Z,1014.62
2019-05-16T09:28:49.663Z,1014.94
2019-05-16T09:29:49.680Z,1014.42
2019-05-16T09:30:49.681Z,1014.65
2019-05-16T09:32:07.828Z,1015.86
2019-05-16T09:32:49.723Z,1014.52
2019-05-16T09:33:49.726Z,1014.42
2019-05-16T09:34:49.766Z,1014.52
2019-05-16T09:35:49.747Z,1014.73
2019-05-16T09:36:49.778Z,1015.82
2019-05-16T09:37:49.777Z,1024.18
2019-05-16T09:38:49.786Z,1024.68
2019-05-16T09:39:49.804Z,1019.21
2019-05-16T09:40:49.809Z,1019.96
2019-05-16T09:41:54.877Z,1014.42
2019-05-16T09:42:49.835Z,1014.44
2019-05-16T09:43:49.840Z,1014.62
2019-05-16T09:44:49.858Z,1013.96
2019-05-16T09:45:49.905Z,1013.84
2019-05-16T09:46:49.885Z,1014.25
2019-05-16T09:47:49.901Z,1015.28
2019-05-16T09:48:49.909Z,1014.50
2019-05-16T09:49:49.915Z,1014.00
2019-05-16T09:50:49.928Z,1013.94
2019-05-16T09:52:49.954Z,1014.03
2019-05-16T09:53:49.966Z,1014.01
2019-05-16T09:54:49.978Z,1013.94
2019-05-16T09:55:49.988Z,1014.18
2019-05-16T09:56:50.041Z,1014.27
2019-05-16T09:57:50.030Z,1014.08
2019-05-16T09:58:50.038Z,1014.08
2019-05-16T09:59:50.048Z,1014.12
2019-05-16T10:00:50.056Z,1014.32
2019-05-16T10:01:50.066Z,1014.21
2019-05-16T10:02:50.084Z,1014.14
2019-05-16T10:03:50.086Z,1013.88
2019-05-16T10:04:50.099Z,1013.92
2019-05-16T10:05:50.098Z,1013.82
2019-05-16T10:06:50.122Z,1014.03
2019-05-16T10:07:50.142Z,1014.00
2019-05-16T10:08:50.162Z,1013.80
2019-05-16T10:09:50.511Z,1013.56
2019-05-16T10:10:50.175Z,1013.53
2019-05-16T10:12:05.525Z,1013.50
2019-05-16T10:12:50.202Z,1013.50
2019-05-16T10:13:50.202Z,1013.52
2019-05-16T10:14:50.210Z,1013.57
2019-05-16T10:15:50.220Z,1013.66
2019-05-16T10:16:50.251Z,1013.70
2019-05-16T10:17:50.247Z,1013.69
2019-05-16T10:18:50.255Z,1013.67
2019-05-16T10:19:50.262Z,1013.70
2019-05-16T10:20:50.274Z,1013.53
2019-05-16T10:21:50.286Z,1013.52
2019-05-16T10:22:50.791Z,1013.58
2019-05-16T10:23:50.328Z,1013.48
2019-05-16T10:24:50.331Z,1013.50
2019-05-16T10:25:50.340Z,1013.43
2019-05-16T10:26:53.836Z,1013.43
2019-05-16T10:27:50.352Z,1013.37
2019-05-16T10:28:50.364Z,1013.35
2019-05-16T10:29:50.372Z,1013.40
2019-05-16T10:30:50.432Z,1013.40
2019-05-16T10:31:53.217Z,1013.45
2019-05-16T10:32:50.409Z,1013.34
2019-05-16T10:33:50.416Z,1013.23
2019-05-16T10:34:50.429Z,1013.20
2019-05-16T10:35:50.445Z,1013.19
2019-05-16T10:36:50.451Z,1013.21
2019-05-16T10:37:50.454Z,1013.22
2019-05-16T10:38:50.458Z,1013.20
2019-05-16T10:39:50.484Z,1013.17
2019-05-16T10:40:50.546Z,1013.11
2019-05-16T10:41:50.500Z,1013.14
2019-05-16T10:43:50.508Z,1013.16
2019-05-16T10:44:50.541Z,1013.25
2019-05-16T10:45:53.540Z,1013.25
2019-05-16T10:46:50.547Z,1013.21
2019-05-16T10:47:50.553Z,1013.27
2019-05-16T10:48:50.557Z,1013.23
2019-05-16T10:49:50.567Z,1013.11
2019-05-16T10:50:50.605Z,1013.12
2019-05-16T10:51:50.615Z,1013.14
2019-05-16T10:53:13.321Z,1013.14
2019-05-16T10:54:05.732Z,1013.08
2019-05-16T10:54:58.091Z,1013.09
2019-05-16T10:55:50.637Z,1013.05
2019-05-16T10:56:50.885Z,1013.06
2019-05-16T10:57:50.830Z,1013.03
2019-05-16T10:59:14.653Z,1013.05
2019-05-16T11:00:05.492Z,1013.03
2019-05-16T11:01:17.794Z,1012.98
2019-05-16T11:01:50.698Z,1013.03
2019-05-16T11:02:50.772Z,1012.97
2019-05-16T11:03:50.724Z,1012.98
2019-05-16T11:05:02.194Z,1012.96
2019-05-16T11:06:03.023Z,1012.99
2019-05-16T11:06:50.734Z,1012.98
2019-05-16T11:08:50.755Z,1012.90
2019-05-16T11:09:58.635Z,1012.92
2019-05-16T11:10:50.809Z,1012.90
2019-05-16T11:11:50.784Z,1012.90
2019-05-16T11:12:55.161Z,1012.93
2019-05-16T11:13:51.289Z,1012.97
2019-05-16T11:14:50.808Z,1013.04
2019-05-16T11:15:50.821Z,1013.02
2019-05-16T11:16:50.850Z,1012.94
2019-05-16T11:17:50.845Z,1012.90
2019-05-16T11:18:50.847Z,1012.84
2019-05-16T11:19:50.859Z,1012.88
2019-05-16T11:20:50.870Z,1012.83
2019-05-16T11:21:50.866Z,1012.83
2019-05-16T11:22:50.877Z,1012.79
2019-05-16T11:23:50.891Z,1012.79
2019-05-16T11:24:50.903Z,1012.77
2019-05-16T11:25:50.917Z,1012.76
2019-05-16T11:26:50.927Z,1012.79
2019-05-16T11:27:50.935Z,1012.80
2019-05-16T11:28:50.944Z,1012.78
2019-05-16T11:29:50.954Z,1012.78
2019-05-16T11:30:50.992Z,1012.78
2019-05-16T11:31:50.984Z,1012.75
2019-05-16T11:32:50.977Z,1012.71
2019-05-16T11:33:50.995Z,1012.73
2019-05-16T11:34:51.000Z,1012.73
2019-05-16T11:35:51.007Z,1012.70
2019-05-16T11:36:51.051Z,1012.74
2019-05-16T11:37:51.037Z,1012.75
2019-05-16T11:38:51.035Z,1012.71
2019-05-16T11:39:51.045Z,1012.66
2019-05-16T11:40:51.060Z,1012.70
2019-05-16T11:41:51.054Z,1012.71
2019-05-16T11:43:05.546Z,1012.68
2019-05-16T11:43:51.080Z,1012.70
2019-05-16T11:44:51.095Z,1012.85
2019-05-16T11:45:51.101Z,1012.98
2019-05-16T11:46:51.250Z,1013.04
2019-05-16T11:47:51.125Z,1013.06
2019-05-16T11:48:51.137Z,1012.89
2019-05-16T11:49:51.148Z,1012.76
2019-05-16T11:50:51.150Z,1012.85
2019-05-16T11:51:51.160Z,1012.83
2019-05-16T11:52:51.185Z,1012.77
2019-05-16T11:53:51.172Z,1013.04
2019-05-16T11:54:51.192Z,1013.29
2019-05-16T11:55:56.051Z,1013.23
2019-05-16T11:56:51.218Z,1013.17
2019-05-16T11:57:51.225Z,1013.16
2019-05-16T11:58:51.243Z,1013.11
2019-05-16T11:59:51.261Z,1013.16
2019-05-16T12:00:51.268Z,1013.26
2019-05-16T12:01:51.275Z,1013.27
2019-05-16T12:02:51.286Z,1013.30
2019-05-16T12:03:51.306Z,1013.39
2019-05-16T12:04:51.310Z,1013.32
2019-05-16T12:05:51.341Z,1013.17
2019-05-16T12:06:51.338Z,1013.10
2019-05-16T12:07:51.355Z,1013.01
2019-05-16T12:08:51.361Z,1012.85
2019-05-16T12:09:55.395Z,1012.76
2019-05-16T12:10:51.387Z,1012.64
2019-05-16T12:12:03.151Z,1012.64
2019-05-16T12:12:51.404Z,1012.68
2019-05-16T12:13:51.431Z,1012.66
2019-05-16T12:14:54.893Z,1012.71
2019-05-16T12:15:51.441Z,1012.73
2019-05-16T12:16:51.457Z,1012.70
2019-05-16T12:18:00.743Z,1012.65
2019-05-16T12:18:51.471Z,1012.66
2019-05-16T12:19:52.925Z,1012.91
2019-05-16T12:20:51.492Z,1013.11
2019-05-16T12:21:51.515Z,1012.97
2019-05-16T12:22:51.529Z,1012.86
2019-05-16T12:23:51.541Z,1012.86
2019-05-16T12:24:51.544Z,1012.96
2019-05-16T12:25:51.573Z,1012.99
2019-05-16T12:26:51.575Z,1013.19
2019-05-16T12:27:51.588Z,1013.23
2019-05-16T12:28:51.595Z,1012.96
2019-05-16T12:29:55.543Z,1012.73
2019-05-16T12:30:51.618Z,1012.66
2019-05-16T12:31:57.769Z,1012.66
2019-05-16T12:32:51.648Z,1012.72
2019-05-16T12:33:51.684Z,1012.60
2019-05-16T12:34:51.689Z,1012.55
2019-05-16T12:35:51.681Z,1012.53
2019-05-16T12:36:51.698Z,1012.54
2019-05-16T12:37:52.067Z,1012.56
2019-05-16T12:38:51.732Z,1012.37
2019-05-16T12:39:51.731Z,1012.32
2019-05-16T12:40:51.744Z,1012.25
2019-05-16T12:41:51.766Z,1012.22
2019-05-16T12:42:54.303Z,1012.25
2019-05-16T12:43:53.583Z,1012.19
2019-05-16T12:44:51.796Z,1012.20
2019-05-16T12:45:51.800Z,1012.26
2019-05-16T12:46:51.807Z,1012.32
2019-05-16T12:47:51.890Z,1012.26
2019-05-16T12:48:51.840Z,1012.22
2019-05-16T12:49:51.844Z,1012.15
2019-05-16T12:50:51.870Z,1012.18
2019-05-16T12:51:51.871Z,1012.11
2019-05-16T12:52:51.871Z,1012.09
2019-05-16T12:53:51.927Z,1012.12
2019-05-16T12:54:51.895Z,1012.09
2019-05-16T12:55:51.899Z,1012.09
2019-05-16T12:56:51.915Z,1012.09
2019-05-16T12:57:58.880Z,1012.05
2019-05-16T12:58:51.935Z,1011.99
2019-05-16T12:59:52.651Z,1012.04
2019-05-16T13:00:57.718Z,1012.00
2019-05-16T13:01:51.979Z,1012.01
2019-05-16T13:02:51.978Z,1011.96
2019-05-16T13:03:52.007Z,1011.92
2019-05-16T13:04:51.991Z,1011.90
2019-05-16T13:05:52.007Z,1011.84
2019-05-16T13:06:52.013Z,1011.75
2019-05-16T13:07:52.031Z,1011.76
2019-05-16T13:08:53.603Z,1011.82
2019-05-16T13:09:52.045Z,1011.84
2019-05-16T13:10:52.054Z,1011.86
2019-05-16T13:11:52.068Z,1011.82
2019-05-16T13:12:52.069Z,1011.79
2019-05-16T13:14:03.522Z,1011.76
2019-05-16T13:14:52.089Z,1011.67
2019-05-16T13:15:52.104Z,1011.63
2019-05-16T13:16:52.114Z,1011.57
2019-05-16T13:17:52.131Z,1011.60
2019-05-16T13:18:52.123Z,1011.58
2019-05-16T13:19:52.133Z,1011.57
2019-05-16T13:20:52.149Z,1011.53
2019-05-16T13:21:52.157Z,1011.49
2019-05-16T13:22:52.163Z,1011.50
2019-05-16T13:23:52.172Z,1011.48
2019-05-16T13:24:52.189Z,1011.44
2019-05-16T13:25:52.197Z,1011.42
2019-05-16T13:26:52.201Z,1011.40
2019-05-16T13:27:52.203Z,1011.42
2019-05-16T13:28:52.230Z,1011.36
2019-05-16T13:29:52.234Z,1011.29
2019-05-16T13:30:52.249Z,1011.26
2019-05-16T13:31:52.246Z,1011.27
2019-05-16T13:32:52.258Z,1011.27
2019-05-16T13:33:52.277Z,1011.21
2019-05-16T13:34:52.279Z,1011.26
2019-05-16T13:35:52.294Z,1011.25
2019-05-16T13:36:52.310Z,1011.28
2019-05-16T13:37:52.313Z,1011.26
2019-05-16T13:38:52.941Z,1011.24
2019-05-16T13:39:52.326Z,1011.22
2019-05-16T13:40:52.338Z,1011.28
2019-05-16T13:41:52.352Z,1011.23
2019-05-16T13:42:52.408Z,1011.24
2019-05-16T13:43:52.366Z,1011.26
2019-05-16T13:44:52.369Z,1011.31
2019-05-16T13:45:52.382Z,1011.27
2019-05-16T13:46:52.398Z,1011.18
2019-05-16T13:47:52.404Z,1011.17
2019-05-16T13:48:52.417Z,1011.19
2019-05-16T13:49:52.422Z,1011.21
2019-05-16T13:51:06.350Z,1011.23
2019-05-16T13:51:52.618Z,1011.17
2019-05-16T13:52:52.458Z,1011.13
2019-05-16T13:53:52.466Z,1011.14
2019-05-16T13:54:52.471Z,1011.19
2019-05-16T13:55:52.483Z,1011.19
2019-05-16T13:56:52.495Z,1011.06
2019-05-16T13:57:52.505Z,1010.94
2019-05-16T13:58:52.509Z,1010.89
2019-05-16T13:59:52.521Z,1010.95
2019-05-16T14:00:52.525Z,1010.95
2019-05-16T14:01:52.537Z,1010.90
2019-05-16T14:02:52.552Z,1010.86
2019-05-16T14:03:52.559Z,1010.86
2019-05-16T14:04:52.570Z,1010.84
2019-05-16T14:05:52.586Z,1010.83
2019-05-16T14:06:55.611Z,1010.83
2019-05-16T14:07:52.592Z,1010.84
2019-05-16T14:08:52.610Z,1010.83
2019-05-16T14:09:52.619Z,1010.79
2019-05-16T14:10:52.630Z,1010.72
2019-05-16T14:11:52.727Z,1010.65
2019-05-16T14:12:52.656Z,1010.65
2019-05-16T14:13:52.672Z,1010.59
2019-05-16T14:14:52.671Z,1010.56
2019-05-16T14:15:52.680Z,1010.58
2019-05-16T14:16:52.682Z,1010.60
2019-05-16T14:17:52.706Z,1010.58
2019-05-16T14:18:52.706Z,1010.56
2019-05-16T14:19:52.716Z,1010.55
2019-05-16T14:20:52.724Z,1010.61
2019-05-16T14:21:52.728Z,1010.61
2019-05-16T14:22:52.741Z,1010.64
2019-05-16T14:23:53.521Z,1010.64
2019-05-16T14:24:52.754Z,1010.64
2019-05-16T14:25:52.768Z,1010.62
2019-05-16T14:26:52.782Z,1010.60
2019-05-16T14:27:52.789Z,1010.58
2019-05-16T14:28:52.808Z,1010.56
2019-05-16T14:29:52.847Z,1010.56
2019-05-16T14:30:52.824Z,1010.53
2019-05-16T14:31:52.827Z,1010.53
2019-05-16T14:32:52.833Z,1010.53
2019-05-16T14:33:52.846Z,1010.58
2019-05-16T14:34:52.870Z,1010.58
2019-05-16T14:35:52.868Z,1010.44
2019-05-16T14:36:52.892Z,1010.45
2019-05-16T14:37:57.534Z,1010.42
2019-05-16T14:38:52.911Z,1010.43
2019-05-16T14:39:52.903Z,1010.39
2019-05-16T14:40:52.908Z,1010.41
2019-05-16T14:41:52.917Z,1010.39
2019-05-16T14:42:52.932Z,1010.36
2019-05-16T14:43:52.956Z,1010.36
2019-05-16T14:45:06.350Z,1010.27
2019-05-16T14:45:52.963Z,1010.28
2019-05-16T14:46:52.961Z,1010.29
2019-05-16T14:47:52.983Z,1010.21
2019-05-16T14:48:52.987Z,1010.20
2019-05-16T14:49:53.002Z,1010.23
2019-05-16T14:50:53.011Z,1010.20
2019-05-16T14:51:53.030Z,1010.22
2019-05-16T14:52:53.021Z,1010.22
2019-05-16T14:53:53.042Z,1010.19
2019-05-16T14:54:53.171Z,1010.10
2019-05-16T14:55:53.066Z,1010.07
2019-05-16T14:56:53.072Z,1010.01
2019-05-16T14:57:53.091Z,1010.01
2019-05-16T14:58:53.085Z,1010.04
2019-05-16T14:59:53.110Z,1010.01
2019-05-16T15:00:53.103Z,1009.99
2019-05-16T15:01:53.135Z,1009.99
2019-05-16T15:02:53.125Z,1010.01
2019-05-16T15:03:53.137Z,1010.02
2019-05-16T15:04:53.149Z,1010.04
2019-05-16T15:05:55.389Z,1010.03
2019-05-16T15:06:53.156Z,1009.99
2019-05-16T15:07:53.170Z,1009.96
2019-05-16T15:08:53.167Z,1010.00
2019-05-16T15:09:53.192Z,1009.99
2019-05-16T15:10:53.192Z,1010.01
2019-05-16T15:11:53.201Z,1009.96
2019-05-16T15:12:53.209Z,1009.93
2019-05-16T15:13:53.213Z,1009.90
2019-05-16T15:14:53.239Z,1009.88
2019-05-16T15:15:53.231Z,1009.88
2019-05-16T15:16:53.244Z,1009.86
2019-05-16T15:17:53.257Z,1009.84
2019-05-16T15:18:53.279Z,1009.85
2019-05-16T15:19:53.269Z,1009.85
2019-05-16T15:20:53.278Z,1009.82
2019-05-16T15:21:53.295Z,1009.81
2019-05-16T15:22:53.291Z,1009.81
2019-05-16T15:24:53.320Z,1009.74
2019-05-16T15:25:53.329Z,1009.71
2019-05-16T15:26:53.332Z,1009.72
2019-05-16T15:27:53.341Z,1009.73
2019-05-16T15:28:53.344Z,1009.67
2019-05-16T15:29:53.364Z,1009.68
2019-05-16T15:30:53.372Z,1009.72
2019-05-16T15:31:53.390Z,1009.68
2019-05-16T15:32:53.399Z,1009.67
2019-05-16T15:33:53.380Z,1009.70
2019-05-16T15:34:53.402Z,1009.66
2019-05-16T15:35:53.458Z,1009.69
2019-05-16T15:36:53.417Z,1009.73
2019-05-16T15:37:53.436Z,1009.71
2019-05-16T15:38:53.434Z,1009.70
2019-05-16T15:39:54.255Z,1009.65
2019-05-16T15:40:53.461Z,1009.63
2019-05-16T15:41:53.467Z,1009.56
2019-05-16T15:42:53.479Z,1009.58
2019-05-16T15:43:53.643Z,1009.51
2019-05-16T15:44:53.485Z,1009.49
2019-05-16T15:45:53.523Z,1009.47
2019-05-16T15:46:53.494Z,1009.44
2019-05-16T15:47:53.510Z,1009.41
2019-05-16T15:48:53.523Z,1009.38
2019-05-16T15:49:53.536Z,1009.40
2019-05-16T15:50:53.547Z,1009.39
2019-05-16T15:51:53.546Z,1009.34
2019-05-16T15:52:53.577Z,1009.29
2019-05-16T15:53:53.573Z,1009.35
2019-05-16T15:54:53.569Z,1009.33
2019-05-16T15:55:53.691Z,1009.30
2019-05-16T15:56:53.582Z,1009.30
2019-05-16T15:57:53.594Z,1009.32
2019-05-16T15:58:53.599Z,1009.26
2019-05-16T15:59:53.607Z,1009.27
2019-05-16T16:00:53.620Z,1009.22
2019-05-16T16:01:53.624Z,1009.22
2019-05-16T16:02:53.639Z,1009.28
2019-05-16T16:03:53.648Z,1009.25
2019-05-16T16:04:53.651Z,1009.22
2019-05-16T16:05:53.660Z,1009.26
2019-05-16T16:06:53.676Z,1009.20
2019-05-16T16:07:53.692Z,1009.22
2019-05-16T16:08:53.694Z,1009.25
2019-05-16T16:10:53.699Z,1009.23
2019-05-16T16:11:53.712Z,1009.17
2019-05-16T16:12:53.718Z,1009.15
2019-05-16T16:13:53.731Z,1009.09
2019-05-16T16:14:53.738Z,1009.09
2019-05-16T16:15:54.609Z,1009.08
2019-05-16T16:16:53.753Z,1009.06
2019-05-16T16:17:53.759Z,1009.09
2019-05-16T16:18:53.814Z,1009.04
2019-05-16T16:19:53.787Z,1009.06
2019-05-16T16:20:53.779Z,1009.01
2019-05-16T16:21:53.783Z,1008.97
2019-05-16T16:22:53.797Z,1009.03
2019-05-16T16:23:53.815Z,1008.97
2019-05-16T16:24:53.804Z,1009.00
2019-05-16T16:25:53.825Z,1008.93
2019-05-16T16:26:53.820Z,1008.92
2019-05-16T16:27:53.844Z,1008.91
2019-05-16T16:28:53.841Z,1008.88
2019-05-16T16:29:53.873Z,1008.89
2019-05-16T16:30:56.741Z,1008.82
2019-05-16T16:31:53.877Z,1008.82
2019-05-16T16:32:53.888Z,1008.81
2019-05-16T16:33:53.888Z,1008.78
2019-05-16T16:34:53.900Z,1008.78
2019-05-16T16:35:53.935Z,1008.78
2019-05-16T16:36:53.905Z,1008.81
2019-05-16T16:37:53.916Z,1008.81
2019-05-16T16:38:53.926Z,1008.84
2019-05-16T16:39:53.929Z,1008.83
2019-05-16T16:40:53.935Z,1008.78
2019-05-16T16:41:56.745Z,1008.82
2019-05-16T16:42:56.649Z,1008.86
2019-05-16T16:43:53.979Z,1008.75
2019-05-16T16:44:56.451Z,1008.79
2019-05-16T16:46:06.259Z,1008.81
2019-05-16T16:46:53.988Z,1008.81
2019-05-16T16:47:54.029Z,1008.84
2019-05-16T16:48:53.995Z,1008.80
2019-05-16T16:49:54.029Z,1008.79
2019-05-16T16:50:54.018Z,1008.83
2019-05-16T16:51:57.065Z,1008.74
2019-05-16T16:52:56.434Z,1008.79
2019-05-16T16:53:54.048Z,1008.75
2019-05-16T16:54:56.690Z,1008.73
2019-05-16T16:55:56.658Z,1008.72
2019-05-16T16:56:54.076Z,1008.71
2019-05-16T16:57:56.691Z,1008.69
2019-05-16T16:58:54.079Z,1008.69
2019-05-16T16:59:54.097Z,1008.69
2019-05-16T17:00:54.099Z,1008.66
2019-05-16T17:01:54.103Z,1008.62
2019-05-16T17:03:03.220Z,1008.64
2019-05-16T17:03:55.356Z,1008.60
2019-05-16T17:04:54.129Z,1008.59
2019-05-16T17:05:54.167Z,1008.55
2019-05-16T17:06:54.137Z,1008.55
2019-05-16T17:07:56.998Z,1008.52
2019-05-16T17:08:56.639Z,1008.53
2019-05-16T17:09:56.255Z,1008.47
2019-05-16T17:10:54.186Z,1008.47
2019-05-16T17:11:54.188Z,1008.48
2019-05-16T17:12:54.199Z,1008.46
2019-05-16T17:13:56.437Z,1008.42
2019-05-16T17:14:54.203Z,1008.41
2019-05-16T17:15:56.687Z,1008.38
2019-05-16T17:16:54.240Z,1008.38
2019-05-16T17:17:54.252Z,1008.38
2019-05-16T17:18:56.740Z,1008.35
2019-05-16T17:19:56.588Z,1008.35
2019-05-16T17:20:56.814Z,1008.30
2019-05-16T17:22:06.473Z,1008.32
2019-05-16T17:22:54.255Z,1008.30
2019-05-16T17:23:54.277Z,1008.29
2019-05-16T17:24:56.529Z,1008.30
2019-05-16T17:25:56.414Z,1008.28
2019-05-16T17:26:54.287Z,1008.27
2019-05-16T17:27:54.332Z,1008.29
2019-05-16T17:28:57.124Z,1008.24
2019-05-16T17:29:56.680Z,1008.27
2019-05-16T17:30:56.500Z,1008.21
2019-05-16T17:32:04.747Z,1008.20
2019-05-16T17:32:56.551Z,1008.18
2019-05-16T17:33:57.539Z,1008.16
2019-05-16T17:34:54.342Z,1008.12
2019-05-16T17:35:54.361Z,1008.15
2019-05-16T17:36:57.089Z,1008.17
2019-05-16T17:37:54.385Z,1008.18
2019-05-16T17:38:54.387Z,1008.16
2019-05-16T17:39:56.798Z,1008.13
2019-05-16T17:40:56.810Z,1008.14
2019-05-16T17:41:57.345Z,1008.16
2019-05-16T17:42:56.714Z,1008.09
2019-05-16T17:43:56.324Z,1008.12
2019-05-16T17:44:56.460Z,1008.12
2019-05-16T17:45:54.434Z,1008.12
2019-05-16T17:46:57.672Z,1008.11
2019-05-16T17:47:54.456Z,1008.09
2019-05-16T17:48:56.926Z,1008.13
2019-05-16T17:49:54.482Z,1008.12
2019-05-16T17:50:56.892Z,1008.09
2019-05-16T17:51:54.477Z,1008.10
2019-05-16T17:52:54.501Z,1008.07
2019-05-16T17:53:54.496Z,1008.07
2019-05-16T17:54:54.505Z,1008.09
2019-05-16T17:55:57.142Z,1008.09
2019-05-16T17:56:56.665Z,1008.12
2019-05-16T17:57:56.890Z,1008.11
2019-05-16T17:58:56.785Z,1008.06
2019-05-16T17:59:57.255Z,1008.04
2019-05-16T18:00:57.781Z,1008.06
2019-05-16T18:01:56.801Z,1008.03
2019-05-16T18:02:56.903Z,1008.06
2019-05-16T18:03:57.080Z,1008.02
2019-05-16T18:04:56.603Z,1008.03
2019-05-16T18:05:56.599Z,1008.04
2019-05-16T18:06:57.560Z,1008.07
2019-05-16T18:07:56.435Z,1008.02
2019-05-16T18:08:57.015Z,1008.00
2019-05-16T18:09:56.717Z,1008.04
2019-05-16T18:10:56.507Z,1008.03
2019-05-16T18:11:54.657Z,1008.01
2019-05-16T18:12:56.711Z,1008.04
2019-05-16T18:13:56.901Z,1008.00
2019-05-16T18:14:57.023Z,1008.02
2019-05-16T18:15:56.588Z,1008.01
2019-05-16T18:17:01.594Z,1008.00
2019-05-16T18:17:56.139Z,1007.95
2019-05-16T18:18:54.688Z,1007.95
2019-05-16T18:19:54.691Z,1007.99
2019-05-16T18:20:58.935Z,1007.96
2019-05-16T18:21:56.985Z,1007.99
2019-05-16T18:22:56.836Z,1007.95
2019-05-16T18:23:54.715Z,1007.93
2019-05-16T18:24:54.738Z,1007.94
2019-05-16T18:25:54.736Z,1007.90
2019-05-16T18:26:57.012Z,1007.92
2019-05-16T18:27:55.641Z,1007.92
2019-05-16T18:28:54.751Z,1007.87
2019-05-16T18:29:54.766Z,1007.88
2019-05-16T18:30:56.621Z,1007.84
2019-05-16T18:31:54.777Z,1007.83
2019-05-16T18:32:54.790Z,1007.84
2019-05-16T18:33:56.567Z,1007.84
2019-05-16T18:34:56.439Z,1007.82
2019-05-16T18:35:54.806Z,1007.86
2019-05-16T18:36:57.072Z,1007.83
2019-05-16T18:37:56.878Z,1007.82
2019-05-16T18:38:57.259Z,1007.82
2019-05-16T18:39:56.471Z,1007.78
2019-05-16T18:40:56.623Z,1007.76
2019-05-16T18:41:56.543Z,1007.71
2019-05-16T18:42:56.997Z,1007.70
2019-05-16T18:43:56.588Z,1007.72
2019-05-16T18:44:56.554Z,1007.69
2019-05-16T18:45:56.666Z,1007.66
2019-05-16T18:47:04.800Z,1007.66
2019-05-16T18:47:56.282Z,1007.60
2019-05-16T18:48:56.512Z,1007.62
2019-05-16T18:49:57.210Z,1007.63
2019-05-16T18:50:57.121Z,1007.59
2019-05-16T18:51:56.926Z,1007.63
2019-05-16T18:52:56.965Z,1007.60
2019-05-16T18:53:56.897Z,1007.56
2019-05-16T18:54:57.439Z,1007.59
2019-05-16T18:55:56.912Z,1007.56
2019-05-16T18:56:54.961Z,1007.60
2019-05-16T18:57:57.434Z,1007.60
2019-05-16T18:58:57.072Z,1007.58
2019-05-16T18:59:56.830Z,1007.57
2019-05-16T19:00:54.985Z,1007.60
2019-05-16T19:01:55.003Z,1007.61
2019-05-16T19:02:56.430Z,1007.61
2019-05-16T19:03:57.159Z,1007.58
2019-05-16T19:04:57.557Z,1007.58